Other Surface Observations
Issued by NWS Missoula, MT

Home | Current Version | Previous Version | Text Only | Print | Product List | Glossary On
Versions: 1 2 3 4 5 6 7 8 9 10 11 12 13 14 15 16 17 18 19 20 21 22 23 24 25 26 27 28 29 30 31 32 33 34 35 36 37 38 39 40 41 42 43 44 45 46 47 48 49 50
000
SXUS55 KMSO 032023
OSOMSO
MONTANA AWOS SUMMARY
NATIONAL WEATHER SERVICE MISSOULA MT
223 PM MDT FRI JUL 3 2015

Montana AWOS Reports

LAUREL      |K6S8 032015Z AUTO 04007KT 15SM 31/11 A2995 RMK AO1 T03110106
TWIN BRIDGES|K7S1 032015Z AUTO 16006KT 40SM 31/06 A3001 RMK AO1 T03110056
ROUNDUP     |KRPX 032015Z AUTO 20004KT 40SM 31/10 A2987 RMK AO1 T03110100
MALTA       |KM75 032015Z AUTO 00000KT 25SM 32/11 A2986 RMK AO1 T03220111




USA.gov is the U.S. government's official web portal to all federal, state and local government web resources and services.